Jamie Marie — WDE7178 — position and weather

sailwx.info

Track history (hours):
 
Tides and Currents Weather Stations Pressure Air Temp Water Temp Dewpoint Dewpoint Depression Visibility Wind Speed Wind Dir Waves Ship Positions

Jamie Marie

Owner: Jamie Marie, Inc., Aberdeen, WA. More information available from US FCC via Universal Licensing System and Coast Guard Vessel Documentation Center.

Last reported at 2016-Apr-29 04:31 UTC. Time now 2016-Apr-29 15:55 UTC.
Position N 46°54' W 124°12'.

Length 30 m.

Type: Fishing. MMSI: 366425240.

Date/timePositionNaut miles runAvg speedWind from/ knotsBaromVisibWave heightAir tempDewpointWater temp
2016-Apr-29 04:31N 46°54' W 124°12'8 7.9
2016-Apr-29 03:33N 46°46' W 124°14'9 8.9
2016-Apr-29 02:33N 46°37' W 124°15'6 6.0
2016-Apr-29 01:33N 46°31' W 124°15'7 7.4
2016-Apr-29 00:33N 46°24' W 124°15'8 7.9
2016-Apr-28 23:33N 46°16' W 124°16'8 8.1
2016-Apr-28 22:33N 46°08' W 124°18'7 6.9
2016-Apr-28 21:33N 46°01' W 124°18'8 8.0
2016-Apr-28 20:33N 45°53' W 124°19'8 8.1
2016-Apr-28 19:33N 45°45' W 124°19'8 7.9
2016-Apr-28 18:33N 45°37' W 124°20'8 7.8
2016-Apr-28 17:33N 45°29' W 124°20'8 7.7
2016-Apr-28 16:29N 45°21' W 124°21'  
2016-Apr-23 21:13N 45°22' W 124°21'5 7.6
2016-Apr-23 20:33N 45°27' W 124°20'8 7.7
2016-Apr-23 19:33N 45°34' W 124°18'8 7.9
2016-Apr-23 18:33N 45°42' W 124°16'8 7.8
2016-Apr-23 17:33N 45°50' W 124°15'8 7.6
2016-Apr-23 16:33N 45°57' W 124°14'7 7.3
2016-Apr-23 15:33N 46°05' W 124°13'8 8.3
2016-Apr-23 14:34N 46°13' W 124°15'7 7.0
2016-Apr-23 13:33N 46°20' W 124°15'8 7.9
2016-Apr-23 12:33N 46°28' W 124°16'8 7.5
2016-Apr-23 11:33N 46°35' W 124°14'8 7.6
2016-Apr-23 10:33N 46°43' W 124°13'8 7.5
2016-Apr-23 09:33N 46°50' W 124°13'6 0.3
2016-Apr-22 13:23N 46°54' W 124°06'0 0.0
2016-Apr-22 12:33N 46°54' W 124°06'0 0.0
2016-Apr-22 11:32N 46°54' W 124°06'4 0.4
2016-Apr-22 02:33N 46°55' W 124°11'8 8.4
2016-Apr-22 01:33N 47°02' W 124°19'13 8.6
2016-Apr-22 00:04N 47°12' W 124°31'35 3.9
2016-Apr-21 15:13N 47°42' W 124°55'2 1.1
2016-Apr-21 13:30N 47°44' W 124°57'2 1.4
2016-Apr-21 12:06N 47°44' W 124°59'0 0.5
2016-Apr-21 11:32N 47°44' W 124°59'0 0.3
2016-Apr-21 10:33N 47°44' W 124°59'0 0.3
2016-Apr-21 09:29N 47°44' W 124°59'0 0.2
2016-Apr-21 08:29N 47°44' W 124°58'2 0.3
2016-Apr-21 02:22N 47°42' W 124°58'1 1.6
2016-Apr-21 01:33N 47°44' W 124°58'9 2.2
2016-Apr-20 21:31N 47°52' W 125°02'2 2.3
2016-Apr-20 20:33N 47°54' W 125°04'5 1.7
2016-Apr-20 17:30N 47°59' W 125°07'2 1.7
2016-Apr-20 16:31N 47°60' W 125°09'2 1.6
2016-Apr-20 15:33N 48°01' W 125°08'2 2.0
2016-Apr-20 14:33N 48°03' W 125°08'3 3.0
2016-Apr-20 13:33N 48°00' W 125°06'1 0.5
2016-Apr-20 12:33N 48°01' W 125°07'1 0.5
2016-Apr-20 11:32N 48°01' W 125°07'0 0.5
2016-Apr-20 10:33N 48°02' W 125°07'1 1.2
2016-Apr-20 09:33N 48°00' W 125°07'8 8.3
2016-Apr-20 08:33N 47°52' W 125°04'8 8.4
2016-Apr-20 07:33N 47°44' W 125°00'8 8.4
2016-Apr-20 06:33N 47°36' W 124°58'8 8.2
2016-Apr-20 05:33N 47°28' W 124°56'8 8.0
2016-Apr-20 04:31N 47°20' W 124°55'7 7.8
2016-Apr-20 03:33N 47°12' W 124°53'7 7.3
2016-Apr-20 02:33N 47°05' W 124°50'5 4.6
2016-Apr-20 01:34N 47°01' W 124°49'1 1.3
2016-Apr-20 00:33N 46°60' W 124°48'2 1.5
2016-Apr-19 23:33N 46°59' W 124°46'2 1.6
2016-Apr-19 22:33N 46°57' W 124°45'4 3.6
2016-Apr-19 21:33N 46°54' W 124°44'3 3.0
2016-Apr-19 20:33N 46°51' W 124°44'2 2.1
2016-Apr-19 19:33N 46°51' W 124°47'1 1.0
2016-Apr-19 18:33N 46°51' W 124°48'2 1.8
2016-Apr-19 17:33N 46°53' W 124°48'3 3.4
2016-Apr-19 16:33N 46°54' W 124°43'2 2.4
2016-Apr-19 15:33N 46°54' W 124°39'2 1.7
2016-Apr-19 14:33N 46°56' W 124°40'2 2.4
2016-Apr-19 13:33N 46°57' W 124°36'1 1.5
2016-Apr-19 12:34N 46°58' W 124°35'1 0.9
2016-Apr-19 11:26N 46°58' W 124°36'1 1.0
2016-Apr-19 10:33N 46°59' W 124°37'1 0.9
2016-Apr-19 09:33N 46°59' W 124°38'1 0.8
2016-Apr-19 08:33N 46°58' W 124°39'1 0.7
2016-Apr-19 07:33N 46°58' W 124°40'1 0.6
2016-Apr-19 06:33N 46°57' W 124°41'0 0.4
2016-Apr-19 05:33N 46°57' W 124°41'0 0.3
2016-Apr-19 04:33N 46°57' W 124°40'  
Track history (hours):
 
Tides and Currents Weather Stations Pressure Air Temp Water Temp Dewpoint Dewpoint Depression Visibility Wind Speed Wind Dir Waves Ship Positions

Jamie Marie

Owner: Jamie Marie, Inc., Aberdeen, WA. More information available from US FCC via Universal Licensing System and Coast Guard Vessel Documentation Center.

Last reported at 2016-Apr-29 04:31 UTC. Time now 2016-Apr-29 15:55 UTC.
Position N 46°54' W 124°12'.

Length 30 m.

Type: Fishing. MMSI: 366425240.

Date/timePositionNaut miles runAvg speedWind from/ knotsBaromVisibWave heightAir tempDewpointWater temp
2016-Apr-29 04:31N 46°54' W 124°12'8 7.9
2016-Apr-29 03:33N 46°46' W 124°14'9 8.9
2016-Apr-29 02:33N 46°37' W 124°15'6 6.0
2016-Apr-29 01:33N 46°31' W 124°15'7 7.4
2016-Apr-29 00:33N 46°24' W 124°15'8 7.9
2016-Apr-28 23:33N 46°16' W 124°16'8 8.1
2016-Apr-28 22:33N 46°08' W 124°18'7 6.9
2016-Apr-28 21:33N 46°01' W 124°18'8 8.0
2016-Apr-28 20:33N 45°53' W 124°19'8 8.1
2016-Apr-28 19:33N 45°45' W 124°19'8 7.9
2016-Apr-28 18:33N 45°37' W 124°20'8 7.8
2016-Apr-28 17:33N 45°29' W 124°20'8 7.7
2016-Apr-28 16:29N 45°21' W 124°21'  
2016-Apr-23 21:13N 45°22' W 124°21'5 7.6
2016-Apr-23 20:33N 45°27' W 124°20'8 7.7
2016-Apr-23 19:33N 45°34' W 124°18'8 7.9
2016-Apr-23 18:33N 45°42' W 124°16'8 7.8
2016-Apr-23 17:33N 45°50' W 124°15'8 7.6
2016-Apr-23 16:33N 45°57' W 124°14'7 7.3
2016-Apr-23 15:33N 46°05' W 124°13'8 8.3
2016-Apr-23 14:34N 46°13' W 124°15'7 7.0
2016-Apr-23 13:33N 46°20' W 124°15'8 7.9
2016-Apr-23 12:33N 46°28' W 124°16'8 7.5
2016-Apr-23 11:33N 46°35' W 124°14'8 7.6
2016-Apr-23 10:33N 46°43' W 124°13'8 7.5
2016-Apr-23 09:33N 46°50' W 124°13'6 0.3
2016-Apr-22 13:23N 46°54' W 124°06'0 0.0
2016-Apr-22 12:33N 46°54' W 124°06'0 0.0
2016-Apr-22 11:32N 46°54' W 124°06'4 0.4
2016-Apr-22 02:33N 46°55' W 124°11'8 8.4
2016-Apr-22 01:33N 47°02' W 124°19'13 8.6
2016-Apr-22 00:04N 47°12' W 124°31'35 3.9
2016-Apr-21 15:13N 47°42' W 124°55'2 1.1
2016-Apr-21 13:30N 47°44' W 124°57'2 1.4
2016-Apr-21 12:06N 47°44' W 124°59'0 0.5
2016-Apr-21 11:32N 47°44' W 124°59'0 0.3
2016-Apr-21 10:33N 47°44' W 124°59'0 0.3
2016-Apr-21 09:29N 47°44' W 124°59'0 0.2
2016-Apr-21 08:29N 47°44' W 124°58'2 0.3
2016-Apr-21 02:22N 47°42' W 124°58'1 1.6
2016-Apr-21 01:33N 47°44' W 124°58'9 2.2
2016-Apr-20 21:31N 47°52' W 125°02'2 2.3
2016-Apr-20 20:33N 47°54' W 125°04'5 1.7
2016-Apr-20 17:30N 47°59' W 125°07'2 1.7
2016-Apr-20 16:31N 47°60' W 125°09'2 1.6
2016-Apr-20 15:33N 48°01' W 125°08'2 2.0
2016-Apr-20 14:33N 48°03' W 125°08'3 3.0
2016-Apr-20 13:33N 48°00' W 125°06'1 0.5
2016-Apr-20 12:33N 48°01' W 125°07'1 0.5
2016-Apr-20 11:32N 48°01' W 125°07'0 0.5
2016-Apr-20 10:33N 48°02' W 125°07'1 1.2
2016-Apr-20 09:33N 48°00' W 125°07'8 8.3
2016-Apr-20 08:33N 47°52' W 125°04'8 8.4
2016-Apr-20 07:33N 47°44' W 125°00'8 8.4
2016-Apr-20 06:33N 47°36' W 124°58'8 8.2
2016-Apr-20 05:33N 47°28' W 124°56'8 8.0
2016-Apr-20 04:31N 47°20' W 124°55'7 7.8
2016-Apr-20 03:33N 47°12' W 124°53'7 7.3
2016-Apr-20 02:33N 47°05' W 124°50'5 4.6
2016-Apr-20 01:34N 47°01' W 124°49'1 1.3
2016-Apr-20 00:33N 46°60' W 124°48'2 1.5
2016-Apr-19 23:33N 46°59' W 124°46'2 1.6
2016-Apr-19 22:33N 46°57' W 124°45'4 3.6
2016-Apr-19 21:33N 46°54' W 124°44'3 3.0
2016-Apr-19 20:33N 46°51' W 124°44'2 2.1
2016-Apr-19 19:33N 46°51' W 124°47'1 1.0
2016-Apr-19 18:33N 46°51' W 124°48'2 1.8
2016-Apr-19 17:33N 46°53' W 124°48'3 3.4
2016-Apr-19 16:33N 46°54' W 124°43'2 2.4
2016-Apr-19 15:33N 46°54' W 124°39'2 1.7
2016-Apr-19 14:33N 46°56' W 124°40'2 2.4
2016-Apr-19 13:33N 46°57' W 124°36'1 1.5
2016-Apr-19 12:34N 46°58' W 124°35'1 0.9
2016-Apr-19 11:26N 46°58' W 124°36'1 1.0
2016-Apr-19 10:33N 46°59' W 124°37'1 0.9
2016-Apr-19 09:33N 46°59' W 124°38'1 0.8
2016-Apr-19 08:33N 46°58' W 124°39'1 0.7
2016-Apr-19 07:33N 46°58' W 124°40'1 0.6
2016-Apr-19 06:33N 46°57' W 124°41'0 0.4
2016-Apr-19 05:33N 46°57' W 124°41'0 0.3
2016-Apr-19 04:33N 46°57' W 124°40'  

Dump ship's entire track history